createdAt,value
2018-10-18T00:02:20.530Z,25.77
2018-10-18T00:07:23.895Z,25.20
2018-10-18T00:12:27.305Z,24.00
2018-10-18T00:17:35.994Z,26.20
2018-10-18T00:22:39.359Z,25.83
2018-10-18T00:27:42.729Z,24.67
2018-10-18T00:32:46.078Z,24.97
2018-10-18T00:37:49.422Z,25.73
2018-10-18T00:42:52.928Z,25.37
2018-10-18T00:47:56.377Z,25.53
2018-10-18T00:52:59.744Z,25.57
2018-10-18T00:58:03.244Z,27.37
2018-10-18T01:03:06.657Z,28.40
2018-10-18T01:08:12.113Z,26.53
2018-10-18T01:13:15.537Z,27.43
2018-10-18T01:18:20.684Z,26.63
2018-10-18T01:23:24.078Z,26.67
2018-10-18T01:28:27.450Z,27.53
2018-10-18T01:33:30.811Z,26.20
2018-10-18T01:38:34.211Z,27.53
2018-10-18T01:43:37.624Z,28.80
2018-10-18T01:48:41.006Z,26.53
2018-10-18T01:53:44.371Z,28.00
2018-10-18T01:58:47.782Z,27.23
2018-10-18T02:03:51.178Z,27.00
2018-10-18T02:08:54.558Z,27.27
2018-10-18T02:13:57.935Z,26.83
2018-10-18T02:19:01.287Z,27.63
2018-10-18T02:24:05.101Z,28.43
2018-10-18T02:29:08.444Z,27.50
2018-10-18T02:34:11.814Z,28.20
2018-10-18T02:39:15.141Z,25.70
2018-10-18T02:44:18.554Z,27.00
2018-10-18T02:49:21.986Z,28.67
2018-10-18T02:54:25.413Z,27.63
2018-10-18T02:59:28.810Z,26.27
2018-10-18T03:04:32.170Z,26.63
2018-10-18T03:09:35.525Z,27.57
2018-10-18T03:14:38.906Z,27.17
2018-10-18T03:19:42.295Z,28.20
2018-10-18T03:24:45.666Z,27.13
2018-10-18T03:29:49.067Z,27.30
2018-10-18T03:34:52.599Z,28.63
2018-10-18T03:39:56.783Z,30.03
2018-10-18T03:45:00.180Z,29.87
2018-10-18T03:50:03.602Z,32.87
2018-10-18T03:55:07.262Z,28.80
2018-10-18T04:00:10.699Z,28.40
2018-10-18T04:05:14.082Z,30.80
2018-10-18T04:10:17.458Z,29.43
2018-10-18T04:15:20.837Z,28.23
2018-10-18T04:20:24.189Z,29.77
2018-10-18T04:25:27.643Z,29.03
2018-10-18T04:30:30.974Z,29.40
2018-10-18T04:35:35.742Z,30.13
2018-10-18T04:40:39.318Z,30.27
2018-10-18T04:45:43.354Z,31.70
2018-10-18T04:50:46.812Z,29.97
2018-10-18T04:55:50.175Z,28.97
2018-10-18T05:00:53.569Z,30.60
2018-10-18T05:05:58.254Z,30.13
2018-10-18T05:11:01.678Z,28.90
2018-10-18T05:16:05.651Z,30.57
2018-10-18T05:21:09.087Z,29.97
2018-10-18T05:26:12.466Z,29.97
2018-10-18T05:31:15.909Z,31.70
2018-10-18T05:36:19.252Z,32.53
2018-10-18T05:41:22.871Z,31.87
2018-10-18T05:46:26.238Z,29.30
2018-10-18T05:51:29.679Z,35.23
2018-10-18T05:56:35.089Z,30.62
2018-10-18T06:01:38.470Z,32.80
2018-10-18T06:06:41.889Z,35.30
2018-10-18T06:11:45.250Z,38.33
2018-10-18T06:16:48.642Z,32.47
2018-10-18T06:21:52.043Z,32.60
2018-10-18T06:26:55.417Z,31.43
2018-10-18T06:31:58.857Z,34.20
2018-10-18T06:37:02.358Z,35.73
2018-10-18T06:42:06.373Z,33.87
2018-10-18T06:47:09.858Z,34.27
2018-10-18T06:52:13.168Z,35.20
2018-10-18T06:57:16.551Z,35.47
2018-10-18T07:02:19.915Z,36.10
2018-10-18T07:07:23.438Z,35.80
2018-10-18T07:12:26.886Z,36.87
2018-10-18T07:17:30.481Z,34.73
2018-10-18T07:22:33.860Z,34.30
2018-10-18T07:27:37.539Z,38.23
2018-10-18T07:32:40.950Z,36.83
2018-10-18T07:37:44.423Z,35.13
2018-10-18T07:42:47.834Z,44.30
2018-10-18T07:47:51.381Z,36.43
2018-10-18T07:52:55.036Z,35.60
2018-10-18T07:57:58.447Z,39.63
2018-10-18T08:03:01.853Z,36.83
2018-10-18T08:08:05.365Z,36.80
2018-10-18T08:13:08.820Z,40.60
2018-10-18T08:18:12.146Z,41.70
2018-10-18T08:23:15.530Z,37.23
2018-10-18T08:28:18.898Z,40.52
2018-10-18T08:33:23.470Z,43.07
2018-10-18T08:38:26.882Z,44.63
2018-10-18T08:43:30.284Z,44.13
2018-10-18T08:48:33.879Z,48.83
2018-10-18T08:53:37.220Z,51.13
2018-10-18T08:58:40.650Z,43.47
2018-10-18T09:03:43.998Z,42.70
2018-10-18T09:08:47.354Z,49.83
2018-10-18T09:13:50.703Z,45.53
2018-10-18T09:18:54.063Z,44.37
2018-10-18T09:23:57.631Z,52.33
2018-10-18T09:29:01.126Z,47.57
2018-10-18T09:34:04.566Z,55.77
2018-10-18T09:39:08.590Z,54.57
2018-10-18T09:44:11.999Z,58.38
2018-10-18T09:49:15.451Z,62.97
2018-10-18T09:54:18.755Z,64.17
2018-10-18T09:59:22.120Z,61.57
2018-10-18T10:04:25.544Z,62.83
2018-10-18T10:09:28.930Z,68.07
2018-10-18T10:14:32.337Z,65.50
2018-10-18T10:19:35.707Z,60.27
2018-10-18T10:24:39.177Z,67.67
2018-10-18T10:29:42.529Z,65.27
2018-10-18T10:34:45.883Z,63.33
2018-10-18T10:39:49.273Z,65.57
2018-10-18T10:44:52.705Z,63.53
2018-10-18T10:49:56.036Z,64.67
2018-10-18T10:54:59.397Z,66.77
2018-10-18T11:00:02.790Z,63.67
2018-10-18T11:05:06.716Z,56.87
2018-10-18T11:10:10.119Z,60.27
2018-10-18T11:15:13.505Z,60.23
2018-10-18T11:20:16.903Z,59.53
2018-10-18T11:25:20.214Z,62.93
2018-10-18T11:30:23.551Z,58.87
2018-10-18T11:35:26.928Z,57.43
2018-10-18T11:40:30.362Z,59.63
2018-10-18T11:45:33.745Z,57.10
2018-10-18T11:50:37.090Z,55.83
2018-10-18T11:55:40.469Z,55.77
2018-10-18T12:00:43.899Z,55.17
2018-10-18T12:05:47.323Z,52.80
2018-10-18T12:10:50.714Z,50.50
2018-10-18T12:15:54.070Z,49.27
2018-10-18T12:20:57.440Z,52.20
2018-10-18T12:26:00.858Z,47.93
2018-10-18T12:31:04.191Z,49.27
2018-10-18T12:36:07.576Z,52.53
2018-10-18T12:41:11.123Z,55.63
2018-10-18T12:46:14.395Z,57.93
2018-10-18T12:51:17.851Z,52.50
2018-10-18T12:56:21.185Z,58.63
2018-10-18T13:01:24.976Z,50.63
2018-10-18T13:06:30.054Z,51.87
2018-10-18T13:11:33.429Z,52.90
2018-10-18T13:16:36.859Z,54.60
2018-10-18T13:21:40.298Z,58.63
2018-10-18T13:26:43.918Z,56.43
2018-10-18T13:31:47.466Z,54.77
2018-10-18T13:36:50.859Z,59.97
2018-10-18T13:41:54.343Z,55.37
2018-10-18T13:46:57.709Z,55.83
2018-10-18T13:52:01.147Z,61.47
2018-10-18T13:57:04.903Z,58.67
2018-10-18T14:02:08.390Z,63.77
2018-10-18T14:07:11.896Z,58.53
2018-10-18T14:12:15.264Z,66.97
2018-10-18T14:17:18.775Z,59.03
2018-10-18T14:22:22.017Z,65.47
2018-10-18T14:27:25.406Z,70.63
2018-10-18T14:32:29.104Z,69.37
2018-10-18T14:37:32.690Z,72.37
2018-10-18T14:42:36.116Z,75.50
2018-10-18T14:47:39.712Z,76.07
2018-10-18T14:52:43.654Z,71.17
2018-10-18T14:57:47.042Z,65.80
2018-10-18T15:02:50.406Z,63.83
2018-10-18T15:07:53.821Z,68.37
2018-10-18T15:12:57.387Z,66.67
2018-10-18T15:18:00.812Z,63.23
2018-10-18T15:23:04.270Z,66.57
2018-10-18T15:28:07.657Z,72.47
2018-10-18T15:33:11.031Z,75.37
2018-10-18T15:38:14.687Z,74.13
2018-10-18T15:43:17.962Z,72.23
2018-10-18T15:48:21.348Z,68.40
2018-10-18T15:53:24.745Z,73.12
2018-10-18T15:58:28.114Z,76.77
2018-10-18T16:03:31.585Z,73.17
2018-10-18T16:08:35.014Z,76.80
2018-10-18T16:13:38.764Z,87.20
2018-10-18T16:18:42.104Z,80.17
2018-10-18T16:23:45.617Z,93.33
2018-10-18T16:33:49.063Z,97.90
2018-10-18T16:38:52.362Z,94.07
2018-10-18T16:43:55.804Z,97.07
2018-10-18T16:48:59.140Z,91.73
2018-10-18T16:54:02.674Z,90.57
2018-10-18T16:59:06.042Z,86.27
2018-10-18T17:04:09.528Z,93.37
2018-10-18T17:09:12.777Z,85.83
2018-10-18T17:14:16.293Z,85.83
2018-10-18T17:19:19.635Z,79.77
2018-10-18T17:24:23.143Z,86.73
2018-10-18T17:29:26.566Z,80.07
2018-10-18T17:34:29.958Z,85.70
2018-10-18T17:39:33.325Z,86.60
2018-10-18T17:44:36.660Z,77.37
2018-10-18T17:49:40.055Z,79.90
2018-10-18T17:54:43.451Z,75.97
2018-10-18T17:59:46.829Z,81.67
2018-10-18T18:04:50.186Z,78.63
2018-10-18T18:09:53.605Z,87.17
2018-10-18T18:14:57.021Z,77.20
2018-10-18T18:20:00.382Z,74.77
2018-10-18T18:25:03.737Z,72.13
2018-10-18T18:30:09.625Z,73.07
2018-10-18T18:35:13.158Z,71.67
2018-10-18T18:40:16.550Z,67.47
2018-10-18T18:45:23.921Z,71.17
2018-10-18T18:50:27.270Z,65.17
2018-10-18T18:55:30.639Z,69.43
2018-10-18T19:00:34.059Z,71.40
2018-10-18T19:05:37.407Z,67.80
2018-10-18T19:10:40.891Z,69.67
2018-10-18T19:15:44.300Z,75.67
2018-10-18T19:20:47.650Z,71.57
2018-10-18T19:25:51.062Z,72.97
2018-10-18T19:30:54.442Z,64.93
2018-10-18T19:35:57.902Z,65.87
2018-10-18T19:41:01.264Z,58.97
2018-10-18T19:46:05.303Z,66.03
2018-10-18T19:51:08.625Z,63.27
2018-10-18T19:56:12.060Z,59.03
2018-10-18T20:01:15.431Z,57.03
2018-10-18T20:06:18.894Z,55.10
2018-10-18T20:11:22.265Z,56.33
2018-10-18T20:16:25.702Z,59.70
2018-10-18T20:21:29.099Z,55.80
2018-10-18T20:26:32.575Z,58.77
2018-10-18T20:31:36.093Z,59.53
2018-10-18T20:36:40.263Z,56.23
2018-10-18T20:41:43.693Z,63.37
2018-10-18T20:46:47.141Z,63.57
2018-10-18T20:51:50.502Z,63.87
2018-10-18T20:56:54.150Z,62.67
2018-10-18T21:01:57.546Z,70.93
2018-10-18T21:07:00.902Z,75.67
2018-10-18T21:12:05.225Z,68.33
2018-10-18T21:17:08.655Z,69.27
2018-10-18T21:22:12.122Z,68.93
2018-10-18T21:27:16.028Z,66.97
2018-10-18T21:32:19.399Z,70.07
2018-10-18T21:37:22.784Z,70.03
2018-10-18T21:42:26.178Z,67.63
2018-10-18T21:47:29.761Z,68.27
2018-10-18T21:52:33.115Z,65.27
2018-10-18T21:57:36.542Z,61.87
2018-10-18T22:02:39.934Z,62.20
2018-10-18T22:07:43.892Z,60.53
2018-10-18T22:12:47.258Z,61.53
2018-10-18T22:17:50.634Z,65.80
2018-10-18T22:22:54.032Z,59.67
2018-10-18T22:27:57.480Z,61.37
2018-10-18T22:33:00.865Z,58.93
2018-10-18T22:38:04.295Z,59.33
2018-10-18T22:43:07.842Z,57.97
2018-10-18T22:48:11.194Z,64.50
2018-10-18T22:53:14.675Z,58.07
2018-10-18T22:58:18.011Z,59.73
2018-10-18T23:03:21.813Z,56.33
2018-10-18T23:08:25.250Z,59.27
2018-10-18T23:13:28.603Z,59.30
2018-10-18T23:18:31.977Z,56.83
2018-10-18T23:23:35.334Z,54.83
2018-10-18T23:28:38.701Z,57.00
2018-10-18T23:33:42.058Z,53.53
2018-10-18T23:38:45.458Z,53.33
2018-10-18T23:43:48.862Z,57.30
2018-10-18T23:48:52.226Z,48.80
2018-10-18T23:53:55.610Z,41.90
2018-10-18T23:58:58.996Z,42.83
